Lyman, Washington
Current Conditions -  °F | °C
As of 3:15 PM on Saturday 25 Oct 2014 (Local Time) from KAWO Reporting Station
Overcast Overcast  
Wind Chill: 57°   Ceiling: 7500
Heat Index: 57°   Visibility: 10mi
Dew Point: 52°   Wind: 0mph
Humidity: 82%   Direction: NA
Pressure: 29.32"   Gusts: NA
Location:  48.53°N, 122.06°W
Report Text: KAWO 252215Z AUTO 00000KT 10SM OVC075 14/11 A2932 RMK AO1
Loading
Personal Weather Stations






























Interactive Weather Map
Tropical Storm Tracking
New forecast layout! Learn more

10-Day Weather Forecast

Advertisements
Track Severe Weather on mobile